Time;durP1;ratioP1;P1;durP2;ratioP2;P2;SDS_P1;SDS_P2;PMS_P1;PMS_P2;Temp;Humidity;BMP_temperature;BMP_pressure;BME280_temperature;BME280_humidity;BME280_pressure;Samples;Min_cycle;Max_cycle;Signal;HPM_P1;HPM_P2
2024/01/15 00:01:29;;;;;;;1.25;0.70;;;3.60;96.70;;;;;;4981433;28;20492;-78
2024/01/15 00:03:55;;;;;;;1.65;0.80;;;3.60;96.70;;;;;;4989334;28;20026;-81
2024/01/15 00:06:20;;;;;;;0.70;0.70;;;3.60;96.80;;;;;;4989785;28;20034;-78
2024/01/15 00:08:46;;;;;;;0.77;0.77;;;3.50;96.80;;;;;;4988357;28;20025;-82
2024/01/15 00:11:12;;;;;;;0.68;0.68;;;3.50;96.80;;;;;;4982679;28;20038;-80
2024/01/15 00:13:37;;;;;;;0.93;0.70;;;3.50;96.80;;;;;;4987043;28;20109;-79
2024/01/15 00:16:04;;;;;;;1.45;0.80;;;3.50;96.90;;;;;;4988373;28;20030;-80
2024/01/15 00:18:30;;;;;;;1.15;0.70;;;3.40;96.90;;;;;;4989179;28;20082;-79
2024/01/15 00:20:56;;;;;;;1.67;0.82;;;3.40;96.90;;;;;;4987357;28;20497;-82
2024/01/15 00:23:22;;;;;;;1.65;1.08;;;3.40;96.80;;;;;;4991062;28;20386;-82
2024/01/15 00:25:47;;;;;;;0.60;0.60;;;3.40;96.80;;;;;;4981668;28;20431;-81
2024/01/15 00:28:13;;;;;;;0.90;0.68;;;3.40;96.80;;;;;;4990640;28;20137;-78
2024/01/15 00:30:38;;;;;;;0.95;0.63;;;3.30;96.80;;;;;;4989183;28;20089;-82
2024/01/15 00:33:04;;;;;;;1.35;0.70;;;3.30;96.80;;;;;;4991510;28;20030;-80
2024/01/15 00:35:30;;;;;;;1.75;0.75;;;3.30;96.80;;;;;;4989730;28;20022;-81
2024/01/15 00:37:56;;;;;;;0.98;0.88;;;3.30;96.90;;;;;;4990988;28;20069;-81
2024/01/15 00:40:21;;;;;;;1.02;0.68;;;3.30;96.80;;;;;;4991049;28;20077;-79
2024/01/15 00:42:47;;;;;;;1.10;1.00;;;3.30;96.80;;;;;;4990184;28;20029;-79
2024/01/15 00:45:12;;;;;;;0.80;0.80;;;3.20;96.80;;;;;;4986360;28;20490;-77
2024/01/15 00:47:38;;;;;;;0.95;0.80;;;3.20;96.90;;;;;;4991850;28;20062;-83
2024/01/15 00:50:04;;;;;;;1.95;0.90;;;3.20;96.90;;;;;;4986367;28;20034;-80
2024/01/15 00:52:30;;;;;;;1.13;0.80;;;3.20;96.90;;;;;;4993015;28;20073;-81
2024/01/15 00:54:55;;;;;;;3.72;0.90;;;3.10;96.80;;;;;;4985326;28;20057;-79
2024/01/15 00:57:21;;;;;;;1.17;0.85;;;3.10;96.90;;;;;;4985079;28;20101;-78
2024/01/15 00:59:48;;;;;;;1.45;1.05;;;3.10;97.00;;;;;;4988108;28;20061;-82
2024/01/15 01:02:13;;;;;;;1.85;0.90;;;3.10;97.00;;;;;;4991025;28;20022;-79
2024/01/15 01:04:40;;;;;;;1.80;0.98;;;3.10;97.00;;;;;;4985400;28;20030;-81
2024/01/15 01:07:05;;;;;;;1.63;0.80;;;3.10;97.00;;;;;;4990439;28;20082;-78
2024/01/15 01:09:31;;;;;;;1.88;0.80;;;3.10;97.00;;;;;;4988024;28;20506;-79
2024/01/15 01:11:56;;;;;;;1.00;0.70;;;3.10;96.90;;;;;;4982092;28;20568;-78
2024/01/15 01:14:22;;;;;;;1.40;0.80;;;3.10;96.90;;;;;;4983527;28;20498;-77
2024/01/15 01:16:48;;;;;;;0.93;0.68;;;3.10;96.90;;;;;;4985922;28;20125;-77
2024/01/15 01:19:13;;;;;;;1.25;0.70;;;3.10;96.90;;;;;;4989643;28;20030;-78
2024/01/15 01:21:39;;;;;;;1.05;0.73;;;3.00;96.90;;;;;;4989347;28;20096;-80
2024/01/15 01:24:05;;;;;;;1.17;0.70;;;3.00;96.90;;;;;;4989511;28;20026;-78
2024/01/15 01:26:31;;;;;;;1.83;0.80;;;3.10;96.90;;;;;;4980316;28;20495;-81
2024/01/15 01:28:56;;;;;;;0.60;0.60;;;3.00;96.90;;;;;;4986176;28;20141;-78
2024/01/15 01:31:23;;;;;;;0.70;0.70;;;3.00;96.80;;;;;;4986151;28;20023;-81
2024/01/15 01:33:49;;;;;;;0.75;0.75;;;3.00;96.80;;;;;;4982494;28;20023;-81
2024/01/15 01:36:15;;;;;;;2.78;0.80;;;3.00;96.80;;;;;;4985699;28;20022;-80
2024/01/15 01:38:41;;;;;;;1.27;1.00;;;3.00;96.80;;;;;;4985910;28;20049;-82
2024/01/15 01:41:06;;;;;;;0.80;0.80;;;3.00;96.80;;;;;;4985474;28;20036;-79
2024/01/15 01:43:32;;;;;;;1.63;0.80;;;3.00;96.80;;;;;;4987267;28;20030;-76
2024/01/15 01:46:00;;;;;;;1.13;0.80;;;3.00;96.80;;;;;;4987291;28;20106;-77
2024/01/15 01:48:26;;;;;;;2.10;0.70;;;3.00;96.80;;;;;;4986312;28;20049;-79
2024/01/15 01:50:59;;;;;;;2.83;0.80;;;3.00;96.70;;;;;;4984509;28;20106;-81
2024/01/15 01:53:26;;;;;;;0.80;0.80;;;3.00;96.70;;;;;;4987244;28;20038;-79
2024/01/15 01:55:52;;;;;;;1.05;0.70;;;2.90;96.60;;;;;;4990255;28;20026;-82
2024/01/15 01:58:19;;;;;;;2.55;0.90;;;2.90;96.60;;;;;;4989878;28;20038;-78
2024/01/15 02:00:46;;;;;;;2.00;0.80;;;2.90;96.60;;;;;;4986697;28;20501;-80
2024/01/15 02:03:12;;;;;;;2.72;1.40;;;2.90;96.60;;;;;;4990618;28;20054;-81
2024/01/15 02:05:39;;;;;;;2.97;0.80;;;2.90;96.60;;;;;;4989928;28;20050;-81
2024/01/15 02:08:05;;;;;;;2.03;0.77;;;2.90;96.60;;;;;;4986292;28;20034;-81
2024/01/15 02:10:32;;;;;;;1.80;0.80;;;2.90;96.60;;;;;;4990802;28;20026;-77
2024/01/15 02:12:58;;;;;;;1.38;0.77;;;3.00;96.60;;;;;;4988901;28;20015;-79
2024/01/15 02:15:23;;;;;;;0.95;0.70;;;2.90;96.60;;;;;;4991873;28;20386;-80
2024/01/15 02:18:02;;;;;;;1.00;0.80;;;3.00;96.50;;;;;;4984527;28;20026;-79
2024/01/15 02:20:28;;;;;;;1.30;0.70;;;2.90;96.50;;;;;;4990505;28;20041;-80
2024/01/15 02:22:54;;;;;;;2.15;0.85;;;2.90;96.50;;;;;;4991921;28;20026;-80
2024/01/15 02:25:20;;;;;;;0.85;0.70;;;2.90;96.50;;;;;;4989872;28;20500;-81
2024/01/15 02:27:46;;;;;;;0.93;0.80;;;2.90;96.50;;;;;;4986035;28;20038;-79
2024/01/15 02:30:12;;;;;;;0.70;0.70;;;2.90;96.50;;;;;;4991101;28;20411;-79
2024/01/15 02:32:41;;;;;;;2.63;0.80;;;2.80;96.50;;;;;;4990094;28;20100;-79
2024/01/15 02:35:06;;;;;;;2.22;1.00;;;2.80;96.40;;;;;;4982769;28;20495;-80
2024/01/15 02:37:32;;;;;;;1.35;0.95;;;2.80;96.40;;;;;;4985331;28;20022;-79
2024/01/15 02:39:58;;;;;;;1.95;0.80;;;2.80;96.40;;;;;;4984045;28;20023;-79
2024/01/15 02:42:23;;;;;;;1.65;0.73;;;2.80;96.40;;;;;;4969702;28;20035;-78
2024/01/15 02:44:49;;;;;;;0.90;0.70;;;2.80;96.40;;;;;;4983969;28;20034;-80
2024/01/15 02:47:14;;;;;;;1.25;0.90;;;2.80;96.40;;;;;;4977984;28;20031;-80
2024/01/15 02:49:41;;;;;;;1.85;0.70;;;2.90;96.30;;;;;;4985708;28;20140;-80
2024/01/15 02:52:06;;;;;;;3.05;0.80;;;2.90;96.20;;;;;;4987668;28;20087;-77
2024/01/15 02:54:32;;;;;;;2.95;0.93;;;2.90;96.20;;;;;;4983426;28;20113;-81
2024/01/15 02:56:57;;;;;;;0.80;0.70;;;2.90;96.10;;;;;;4979260;28;20053;-81
2024/01/15 02:59:23;;;;;;;0.88;0.70;;;2.90;96.10;;;;;;4985782;28;20105;-80
2024/01/15 03:01:48;;;;;;;1.90;0.80;;;2.80;96.00;;;;;;4984534;28;20598;-83
2024/01/15 03:04:14;;;;;;;1.13;0.70;;;2.80;96.00;;;;;;4984281;28;20098;-78
2024/01/15 03:06:39;;;;;;;0.70;0.70;;;2.80;96.10;;;;;;4988082;28;20443;-82
2024/01/15 03:09:05;;;;;;;2.10;0.80;;;2.80;96.10;;;;;;4984503;28;20567;-79
2024/01/15 03:11:38;;;;;;;1.95;0.80;;;2.80;96.10;;;;;;4980451;28;20394;-80
2024/01/15 03:14:04;;;;;;;2.15;0.80;;;2.80;96.10;;;;;;4987847;28;20125;-78
2024/01/15 03:16:29;;;;;;;0.73;0.70;;;2.80;96.10;;;;;;4987981;28;20030;-79
2024/01/15 03:18:55;;;;;;;2.42;0.90;;;2.80;96.10;;;;;;4985064;28;20069;-82
2024/01/15 03:21:20;;;;;;;1.77;0.70;;;2.80;96.10;;;;;;4982333;28;20073;-79
2024/01/15 03:23:46;;;;;;;2.55;0.70;;;2.80;96.10;;;;;;4985705;28;20023;-78
2024/01/15 03:26:11;;;;;;;0.70;0.70;;;2.80;96.10;;;;;;4985356;28;20018;-79
2024/01/15 03:28:37;;;;;;;1.40;0.77;;;2.80;96.20;;;;;;4980406;28;20162;-79
2024/01/15 03:31:03;;;;;;;3.03;0.80;;;2.80;96.20;;;;;;4980312;28;20027;-77
2024/01/15 03:33:28;;;;;;;0.80;0.80;;;2.80;96.20;;;;;;4981384;28;20086;-77
2024/01/15 03:35:54;;;;;;;1.40;0.68;;;2.80;96.20;;;;;;4980671;28;20064;-78
2024/01/15 03:38:19;;;;;;;1.98;0.80;;;2.80;96.20;;;;;;4979153;28;20026;-81
2024/01/15 03:40:45;;;;;;;0.77;0.70;;;2.80;96.20;;;;;;4980448;28;20170;-79
2024/01/15 03:43:10;;;;;;;2.05;0.70;;;2.70;96.10;;;;;;4985018;28;20014;-77
2024/01/15 03:45:36;;;;;;;0.60;0.60;;;2.70;96.20;;;;;;4987159;28;20030;-82
2024/01/15 03:48:02;;;;;;;1.67;0.75;;;2.70;96.20;;;;;;4981641;28;20038;-81
2024/01/15 03:50:27;;;;;;;0.60;0.60;;;2.80;96.30;;;;;;4983192;28;20030;-78
2024/01/15 03:52:53;;;;;;;1.55;0.70;;;2.80;96.20;;;;;;4982977;28;20113;-81
2024/01/15 03:55:18;;;;;;;2.10;0.70;;;2.80;96.20;;;;;;4980153;28;20106;-81
2024/01/15 03:57:44;;;;;;;2.03;1.13;;;2.80;96.20;;;;;;4979862;28;20087;-78
2024/01/15 04:00:10;;;;;;;1.15;0.70;;;2.80;96.20;;;;;;4974592;28;20474;-80
2024/01/15 04:02:35;;;;;;;0.70;0.70;;;2.80;96.20;;;;;;4986374;28;20027;-78
2024/01/15 04:05:01;;;;;;;1.20;0.70;;;2.80;96.10;;;;;;4981983;28;20037;-81
2024/01/15 04:07:27;;;;;;;1.48;0.80;;;2.90;96.00;;;;;;4980383;28;20560;-80
2024/01/15 04:09:52;;;;;;;1.27;0.70;;;2.90;96.00;;;;;;4983743;28;20019;-78
2024/01/15 04:12:18;;;;;;;0.85;0.63;;;2.90;95.90;;;;;;4978289;28;20478;-80
2024/01/15 04:14:43;;;;;;;1.65;0.80;;;3.00;95.90;;;;;;4984180;28;20030;-78
2024/01/15 04:17:09;;;;;;;0.80;0.80;;;3.00;95.80;;;;;;4990581;28;20030;-78
2024/01/15 04:19:34;;;;;;;1.52;0.73;;;3.00;95.80;;;;;;4975736;28;20443;-77
2024/01/15 04:22:00;;;;;;;0.70;0.70;;;3.00;95.70;;;;;;4986108;28;20026;-81
2024/01/15 04:24:25;;;;;;;0.60;0.60;;;3.00;95.70;;;;;;4981903;28;20105;-77
2024/01/15 04:26:51;;;;;;;2.45;0.70;;;3.00;95.80;;;;;;4987413;28;20030;-82
2024/01/15 04:29:16;;;;;;;1.63;0.70;;;3.00;95.80;;;;;;4980608;28;20034;-80
2024/01/15 04:31:42;;;;;;;1.38;0.90;;;2.90;95.90;;;;;;4983586;28;20042;-78
2024/01/15 04:34:08;;;;;;;0.70;0.70;;;2.90;95.90;;;;;;4985720;28;20482;-81
2024/01/15 04:36:39;;;;;;;1.17;0.68;;;2.90;96.00;;;;;;4977591;28;20022;-78
2024/01/15 04:39:05;;;;;;;;;;;2.90;96.00;;;;;;4986173;28;20489;-79
2024/01/15 04:41:30;;;;;;;1.50;0.73;;;2.90;96.00;;;;;;4983182;28;19937;-81
2024/01/15 04:43:56;;;;;;;2.45;0.70;;;2.80;96.00;;;;;;4979822;28;20023;-78
2024/01/15 04:46:21;;;;;;;2.45;0.80;;;2.80;96.10;;;;;;4970863;28;20086;-80
2024/01/15 04:48:47;;;;;;;1.55;0.80;;;2.80;96.10;;;;;;4984523;28;20030;-79
2024/01/15 04:51:13;;;;;;;1.67;0.80;;;2.70;96.20;;;;;;4987436;28;20140;-80
2024/01/15 04:53:38;;;;;;;0.73;0.70;;;2.70;96.20;;;;;;4983828;28;20456;-80
2024/01/15 04:56:04;;;;;;;2.45;0.95;;;2.70;96.20;;;;;;5008713;28;20033;-77
2024/01/15 04:58:29;;;;;;;0.70;0.70;;;2.60;96.50;;;;;;4979154;28;20114;-81
2024/01/15 05:00:55;;;;;;;0.85;0.70;;;2.60;96.30;;;;;;4987351;28;20370;-79
2024/01/15 05:03:21;;;;;;;2.35;1.55;;;2.60;96.30;;;;;;4983466;28;20512;-78
2024/01/15 05:05:46;;;;;;;0.80;0.70;;;2.60;96.30;;;;;;4986567;28;20550;-80
2024/01/15 05:08:12;;;;;;;0.90;0.80;;;2.60;96.30;;;;;;4983159;28;20402;-79
2024/01/15 05:10:37;;;;;;;2.83;0.80;;;2.60;96.40;;;;;;4986664;28;20035;-80
2024/01/15 05:13:03;;;;;;;1.77;0.90;;;2.60;96.40;;;;;;4987484;28;20057;-80
2024/01/15 05:15:29;;;;;;;1.17;0.88;;;2.60;96.30;;;;;;4984920;28;20486;-79
2024/01/15 05:17:55;;;;;;;0.70;0.70;;;2.60;96.30;;;;;;4988564;28;20022;-77
2024/01/15 05:20:20;;;;;;;0.98;0.70;;;2.60;96.30;;;;;;4984396;28;20022;-82
2024/01/15 05:22:46;;;;;;;3.13;0.80;;;2.60;96.40;;;;;;4981517;28;20409;-80
2024/01/15 05:25:12;;;;;;;2.35;0.82;;;2.60;96.40;;;;;;4983029;28;20109;-78
2024/01/15 05:27:37;;;;;;;3.70;1.30;;;2.60;96.30;;;;;;4983302;28;20034;-80
2024/01/15 05:30:03;;;;;;;1.95;1.05;;;2.70;96.30;;;;;;4988502;28;20031;-79
2024/01/15 05:32:29;;;;;;;1.38;0.90;;;2.60;96.30;;;;;;4991912;28;20077;-82
2024/01/15 05:34:55;;;;;;;3.42;0.90;;;2.70;96.30;;;;;;4983546;28;20026;-79
2024/01/15 05:37:20;;;;;;;3.38;1.08;;;2.70;96.30;;;;;;4981455;28;20487;-78
2024/01/15 05:39:46;;;;;;;2.08;0.90;;;2.70;96.20;;;;;;4983585;28;20023;-80
2024/01/15 05:42:11;;;;;;;1.35;0.90;;;2.70;96.20;;;;;;4981686;28;20483;-80
2024/01/15 05:44:37;;;;;;;1.83;1.10;;;2.70;96.30;;;;;;4990238;28;20037;-81
2024/01/15 05:47:04;;;;;;;2.45;0.90;;;2.80;96.20;;;;;;4990875;28;20030;-77
2024/01/15 05:49:30;;;;;;;3.05;1.08;;;2.80;96.20;;;;;;4984078;28;20046;-80
2024/01/15 05:51:55;;;;;;;1.10;0.88;;;2.80;96.10;;;;;;4983138;28;20379;-77
2024/01/15 05:54:21;;;;;;;0.98;0.90;;;2.80;96.10;;;;;;4987098;28;21440;-78
2024/01/15 05:56:46;;;;;;;2.50;1.25;;;2.80;96.00;;;;;;4983323;28;20031;-78
2024/01/15 05:59:12;;;;;;;1.67;0.80;;;2.70;96.00;;;;;;4984536;28;20081;-82
2024/01/15 06:01:38;;;;;;;1.80;0.80;;;2.70;96.10;;;;;;4985256;28;20030;-80
2024/01/15 06:04:03;;;;;;;0.95;0.77;;;2.80;96.20;;;;;;4978336;28;20033;-77
2024/01/15 06:06:29;;;;;;;0.80;0.77;;;2.70;96.10;;;;;;4983440;28;20023;-80
2024/01/15 06:08:54;;;;;;;0.80;0.80;;;2.80;96.20;;;;;;4990211;28;20034;-81
2024/01/15 06:11:20;;;;;;;1.67;1.00;;;2.80;96.10;;;;;;4988750;28;20045;-80
2024/01/15 06:13:45;;;;;;;0.90;0.82;;;2.80;96.10;;;;;;4981804;28;20411;-80
2024/01/15 06:16:20;;;;;;;1.25;0.80;;;2.80;96.10;;;;;;4990434;28;20141;-78
2024/01/15 06:18:45;;;;;;;0.98;0.80;;;2.90;96.10;;;;;;4979373;28;20466;-80
2024/01/15 06:21:12;;;;;;;1.48;1.00;;;2.90;96.00;;;;;;4986974;28;20034;-80
2024/01/15 06:23:38;;;;;;;1.63;1.15;;;2.90;96.00;;;;;;5003136;28;20462;-78
2024/01/15 06:26:04;;;;;;;1.70;1.00;;;2.90;96.00;;;;;;4985155;28;20026;-82
2024/01/15 06:28:29;;;;;;;2.45;1.15;;;2.90;96.00;;;;;;4990812;28;20085;-85
2024/01/15 06:30:55;;;;;;;0.88;0.80;;;2.90;96.00;;;;;;4983468;28;20034;-81
2024/01/15 06:33:20;;;;;;;2.25;1.00;;;2.80;96.00;;;;;;4981659;28;21400;-83
2024/01/15 06:35:46;;;;;;;2.25;0.80;;;2.90;96.00;;;;;;4988185;28;20068;-81
2024/01/15 06:38:12;;;;;;;1.70;0.90;;;2.90;96.00;;;;;;4986632;28;20076;-83
2024/01/15 06:40:39;;;;;;;1.05;0.80;;;2.90;96.10;;;;;;4989944;28;20026;-80
2024/01/15 06:43:05;;;;;;;0.70;0.70;;;3.00;96.10;;;;;;4986171;28;20029;-84
2024/01/15 06:45:30;;;;;;;0.88;0.75;;;3.00;96.00;;;;;;4988058;28;20027;-81
2024/01/15 06:47:56;;;;;;;0.90;0.90;;;2.90;96.00;;;;;;4996226;28;20042;-83
2024/01/15 06:50:23;;;;;;;1.52;0.80;;;2.90;96.00;;;;;;5005179;28;20053;-81
2024/01/15 06:52:49;;;;;;;0.82;0.82;;;2.90;96.00;;;;;;4986845;28;20487;-84
2024/01/15 06:55:15;;;;;;;0.70;0.70;;;2.90;96.00;;;;;;4985342;28;20058;-83
2024/01/15 06:57:41;;;;;;;0.70;0.70;;;3.00;96.30;;;;;;4981562;28;20049;-82
2024/01/15 07:00:08;;;;;;;0.70;0.70;;;3.00;96.10;;;;;;4987196;28;20031;-81
2024/01/15 07:02:33;;;;;;;0.70;0.70;;;3.00;96.10;;;;;;4987451;28;20077;-86
2024/01/15 07:04:59;;;;;;;0.70;0.70;;;3.00;96.10;;;;;;4986254;28;20026;-81
2024/01/15 07:07:28;;;;;;;0.73;0.73;;;3.00;96.00;;;;;;4988673;28;20025;-82
2024/01/15 07:09:54;;;;;;;0.70;0.70;;;3.00;96.00;;;;;;4979778;28;20054;-82
2024/01/15 07:12:19;;;;;;;0.80;0.80;;;3.00;96.10;;;;;;5007157;28;20030;-84
2024/01/15 07:14:45;;;;;;;0.75;0.75;;;3.00;96.00;;;;;;4989140;28;20116;-81
2024/01/15 07:17:10;;;;;;;0.60;0.60;;;3.00;96.00;;;;;;4980169;28;20030;-84
2024/01/15 07:19:36;;;;;;;0.70;0.70;;;3.10;96.00;;;;;;4989839;28;20386;-80
2024/01/15 07:22:02;;;;;;;0.70;0.70;;;3.10;96.30;;;;;;4990741;28;20025;-83
2024/01/15 07:24:27;;;;;;;0.60;0.60;;;3.00;96.00;;;;;;4990134;28;20158;-85
2024/01/15 07:26:53;;;;;;;0.90;0.90;;;3.00;96.00;;;;;;4985641;28;20402;-79
2024/01/15 07:29:19;;;;;;;0.80;0.80;;;2.90;96.00;;;;;;4985336;28;20031;-82
2024/01/15 07:31:49;;;;;;;1.23;1.10;;;3.00;96.00;;;;;;4987187;28;20030;-82
2024/01/15 07:34:15;;;;;;;0.90;0.90;;;3.00;96.00;;;;;;4988303;28;20033;-82
2024/01/15 07:36:40;;;;;;;1.10;1.00;;;3.00;96.00;;;;;;4986044;28;20030;-82
2024/01/15 07:39:06;;;;;;;1.15;1.10;;;3.00;96.00;;;;;;4993746;28;20870;-82
2024/01/15 07:41:31;;;;;;;1.20;1.10;;;3.00;96.00;;;;;;4989585;28;20069;-80
2024/01/15 07:43:57;;;;;;;1.10;1.10;;;3.00;96.00;;;;;;4977822;28;20459;-82
2024/01/15 07:46:23;;;;;;;1.20;1.10;;;3.00;96.00;;;;;;4996204;28;20544;-80
2024/01/15 07:48:51;;;;;;;2.10;1.17;;;2.90;96.00;;;;;;5000712;28;20045;-82
2024/01/15 07:51:16;;;;;;;1.45;1.35;;;2.90;96.00;;;;;;4999826;28;20026;-81
2024/01/15 07:53:42;;;;;;;1.38;1.15;;;2.90;96.00;;;;;;4987869;28;20375;-84
2024/01/15 07:56:07;;;;;;;1.17;1.10;;;3.00;96.10;;;;;;4981867;28;20021;-82
2024/01/15 07:58:33;;;;;;;1.45;1.08;;;3.00;96.00;;;;;;4991240;28;20560;-80
2024/01/15 08:00:59;;;;;;;1.20;1.10;;;3.00;96.00;;;;;;4982448;28;20030;-82
2024/01/15 08:03:24;;;;;;;1.00;1.00;;;3.00;96.00;;;;;;4988417;28;20485;-80
2024/01/15 08:05:52;;;;;;;1.35;1.25;;;3.00;96.00;;;;;;4993925;28;20512;-79
2024/01/15 08:08:18;;;;;;;1.08;1.08;;;3.00;96.00;;;;;;4995861;28;20026;-81
2024/01/15 08:10:44;;;;;;;1.10;1.00;;;3.00;96.00;;;;;;4991563;28;20100;-80
2024/01/15 08:13:09;;;;;;;1.10;1.00;;;3.00;96.00;;;;;;4993753;28;20027;-82
2024/01/15 08:15:35;;;;;;;1.00;0.90;;;3.00;96.00;;;;;;4993171;28;20030;-79
2024/01/15 08:18:00;;;;;;;0.90;0.90;;;3.00;96.00;;;;;;4993871;28;20438;-80
2024/01/15 08:20:26;;;;;;;0.90;0.90;;;3.00;96.00;;;;;;4986338;28;20441;-82
2024/01/15 08:22:52;;;;;;;0.82;0.82;;;3.00;96.00;;;;;;4989745;28;20029;-81
2024/01/15 08:25:17;;;;;;;0.80;0.80;;;3.10;96.00;;;;;;4989924;28;20022;-82
2024/01/15 08:27:43;;;;;;;0.93;0.93;;;3.10;95.90;;;;;;4995941;28;20520;-82
2024/01/15 08:30:09;;;;;;;0.80;0.80;;;3.10;95.90;;;;;;4986547;28;20422;-83
2024/01/15 08:32:40;;;;;;;0.75;0.75;;;3.10;95.80;;;;;;4991727;28;20057;-81
2024/01/15 08:35:06;;;;;;;1.17;1.00;;;3.10;95.90;;;;;;4993401;28;20014;-80
2024/01/15 08:37:32;;;;;;;1.00;1.00;;;3.10;95.80;;;;;;4997909;28;20064;-84
2024/01/15 08:39:57;;;;;;;0.90;0.90;;;3.10;95.90;;;;;;4999802;28;20022;-79
2024/01/15 08:42:23;;;;;;;1.30;1.20;;;3.10;95.80;;;;;;5001632;28;20038;-83
2024/01/15 08:44:50;;;;;;;1.10;1.00;;;3.00;95.70;;;;;;5002702;28;20081;-81
2024/01/15 08:47:15;;;;;;;0.90;0.90;;;3.10;95.90;;;;;;5007419;28;20018;-83
2024/01/15 08:49:42;;;;;;;1.02;0.93;;;3.00;95.90;;;;;;4994878;28;20034;-81
2024/01/15 08:52:09;;;;;;;1.10;1.00;;;3.00;96.00;;;;;;4999575;28;20073;-84
2024/01/15 08:54:38;;;;;;;1.50;1.10;;;3.10;95.90;;;;;;4997044;28;20037;-82
2024/01/15 08:57:03;;;;;;;1.00;0.90;;;3.10;95.90;;;;;;5004343;28;20030;-82
2024/01/15 08:59:29;;;;;;;1.27;1.13;;;3.10;95.80;;;;;;4998202;28;20184;-83
2024/01/15 09:01:57;;;;;;;1.02;1.00;;;3.00;95.80;;;;;;4997158;28;20026;-82
2024/01/15 09:04:23;;;;;;;1.25;1.02;;;3.00;95.80;;;;;;5002130;28;20029;-85
2024/01/15 09:06:49;;;;;;;0.90;0.90;;;3.00;95.80;;;;;;5004852;28;20022;-78
2024/01/15 09:09:14;;;;;;;0.80;0.80;;;3.00;95.90;;;;;;5000814;28;20091;-78
2024/01/15 09:11:43;;;;;;;0.80;0.80;;;3.00;95.80;;;;;;4998782;28;20031;-80
2024/01/15 09:14:09;;;;;;;1.20;0.85;;;3.00;95.90;;;;;;4997752;28;20081;-83
2024/01/15 09:16:35;;;;;;;1.10;0.90;;;3.00;95.90;;;;;;5000647;28;20026;-79
2024/01/15 09:19:01;;;;;;;0.80;0.80;;;3.00;95.90;;;;;;5003651;28;20043;-81
2024/01/15 09:21:26;;;;;;;0.80;0.80;;;3.00;95.90;;;;;;4999652;28;20025;-78
2024/01/15 09:23:52;;;;;;;1.10;0.77;;;3.00;95.90;;;;;;5004735;28;20104;-82
2024/01/15 09:26:17;;;;;;;0.70;0.70;;;3.10;95.90;;;;;;4996599;28;20498;-77
2024/01/15 09:28:43;;;;;;;1.10;1.00;;;3.10;95.90;;;;;;4997473;28;20034;-82
2024/01/15 09:31:09;;;;;;;1.13;0.90;;;3.10;95.80;;;;;;5001220;28;20022;-81
2024/01/15 09:33:34;;;;;;;1.30;1.00;;;3.20;95.90;;;;;;4993618;28;20536;-79
2024/01/15 09:36:04;;;;;;;1.13;1.00;;;3.30;95.80;;;;;;5000778;28;20029;-79
2024/01/15 09:38:31;;;;;;;1.02;1.00;;;3.30;95.60;;;;;;4985213;28;20041;-81
2024/01/15 09:40:57;;;;;;;1.50;1.00;;;3.30;95.60;;;;;;4994508;28;20023;-78
2024/01/15 09:43:23;;;;;;;1.77;1.30;;;3.40;95.60;;;;;;4993852;28;20030;-80
2024/01/15 09:45:49;;;;;;;2.05;1.30;;;3.40;95.40;;;;;;4999286;28;20041;-78
2024/01/15 09:48:16;;;;;;;1.50;1.40;;;3.50;95.30;;;;;;4988588;28;20050;-80
2024/01/15 09:50:42;;;;;;;1.27;1.17;;;3.50;95.40;;;;;;4989109;28;20042;-80
2024/01/15 09:53:09;;;;;;;2.58;1.23;;;3.50;95.30;;;;;;4987121;28;20556;-80
2024/01/15 09:55:37;;;;;;;1.60;1.50;;;3.60;95.30;;;;;;4988038;28;20034;-82
2024/01/15 09:58:03;;;;;;;1.52;1.30;;;3.60;95.20;;;;;;4986406;28;20034;-78
2024/01/15 10:00:31;;;;;;;2.50;1.35;;;3.60;95.10;;;;;;4983021;28;20393;-81
2024/01/15 10:02:56;;;;;;;1.17;1.05;;;3.60;95.00;;;;;;4987237;28;20053;-80
2024/01/15 10:05:22;;;;;;;1.17;0.93;;;3.50;95.00;;;;;;4982998;28;20053;-80
2024/01/15 10:07:50;;;;;;;1.92;1.00;;;3.40;95.00;;;;;;4983561;28;20022;-80
2024/01/15 10:10:15;;;;;;;1.40;1.15;;;3.30;95.00;;;;;;4989202;28;20018;-77
2024/01/15 10:12:42;;;;;;;0.90;0.90;;;3.30;95.20;;;;;;4989652;28;20085;-79
2024/01/15 10:15:11;;;;;;;0.90;0.90;;;3.30;95.40;;;;;;4983745;28;20080;-79
2024/01/15 10:17:38;;;;;;;0.90;0.90;;;3.40;95.50;;;;;;4983350;28;20405;-79
2024/01/15 10:20:11;;;;;;;1.20;0.80;;;3.50;95.40;;;;;;4989796;28;20027;-80
2024/01/15 10:22:41;;;;;;;1.33;0.90;;;3.50;95.30;;;;;;4986639;28;20057;-77
2024/01/15 10:25:10;;;;;;;0.70;0.70;;;3.80;95.40;;;;;;4980766;28;20030;-81
2024/01/15 10:27:36;;;;;;;2.92;0.90;;;3.90;95.00;;;;;;4985914;28;20109;-79
2024/01/15 10:30:02;;;;;;;0.70;0.70;;;3.90;94.60;;;;;;4985539;28;20104;-82
2024/01/15 10:32:28;;;;;;;1.15;0.85;;;3.80;94.50;;;;;;4995091;28;20121;-79
2024/01/15 10:34:54;;;;;;;1.85;0.85;;;3.70;94.60;;;;;;4992070;28;20100;-77
2024/01/15 10:37:20;;;;;;;0.70;0.70;;;3.70;94.70;;;;;;4991575;28;20068;-79
2024/01/15 10:39:46;;;;;;;1.67;0.90;;;3.70;94.70;;;;;;4989304;28;20057;-83
2024/01/15 10:42:12;;;;;;;0.98;0.85;;;3.60;94.70;;;;;;4983010;28;20023;-84
2024/01/15 10:44:38;;;;;;;0.93;0.80;;;3.60;94.80;;;;;;4993584;28;20053;-81
2024/01/15 10:47:04;;;;;;;0.80;0.80;;;3.60;94.90;;;;;;4991891;28;20061;-82
2024/01/15 10:49:30;;;;;;;0.88;0.80;;;3.70;95.00;;;;;;4992030;28;20559;-82
2024/01/15 10:51:57;;;;;;;1.25;0.75;;;3.70;95.00;;;;;;4994617;28;20030;-83
2024/01/15 10:54:23;;;;;;;0.70;0.65;;;3.70;94.90;;;;;;4980934;28;20062;-82
2024/01/15 10:56:51;;;;;;;0.70;0.70;;;3.80;95.10;;;;;;4986387;28;20454;-79
2024/01/15 10:59:18;;;;;;;0.70;0.70;;;4.00;95.00;;;;;;4993009;28;20030;-77
2024/01/15 11:01:46;;;;;;;2.03;1.02;;;4.00;94.60;;;;;;4994603;28;20141;-81
2024/01/15 11:04:11;;;;;;;1.02;0.82;;;4.00;94.60;;;;;;4990344;28;20050;-80
2024/01/15 11:06:44;;;;;;;0.95;0.95;;;3.90;94.50;;;;;;4983222;28;20085;-82
2024/01/15 11:09:09;;;;;;;0.80;0.80;;;3.90;94.60;;;;;;4986770;28;20018;-79
2024/01/15 11:11:39;;;;;;;2.13;0.90;;;3.80;94.60;;;;;;4991128;28;20026;-84
2024/01/15 11:14:06;;;;;;;2.72;1.17;;;3.80;94.60;;;;;;4988315;28;20041;-80
2024/01/15 11:16:56;;;;;;;1.38;0.90;;;3.70;94.60;;;;;;4988989;28;20033;-80
2024/01/15 11:19:22;;;;;;;1.05;0.95;;;3.60;94.80;;;;;;4986880;28;20077;-82
2024/01/15 11:21:48;;;;;;;1.10;1.00;;;3.70;95.00;;;;;;4984846;28;20525;-79
2024/01/15 11:24:37;;;;;;;1.25;0.88;;;3.70;95.10;;;;;;4987365;28;20069;-78
2024/01/15 11:27:03;;;;;;;0.90;0.90;;;3.80;95.00;;;;;;4984725;28;20069;-79
2024/01/15 11:29:35;;;;;;;1.63;1.00;;;3.80;94.80;;;;;;4986920;28;20285;-78
2024/01/15 11:32:08;;;;;;;3.33;1.02;;;3.70;94.70;;;;;;4986863;28;20030;-78
2024/01/15 11:34:54;;;;;;;1.23;1.00;;;3.70;94.80;;;;;;4976559;28;20129;-81
2024/01/15 11:37:21;;;;;;;1.23;1.13;;;3.70;95.00;;;;;;4986385;28;20519;-80
2024/01/15 11:39:47;;;;;;;1.48;0.90;;;3.70;94.90;;;;;;4980469;28;20041;-79
2024/01/15 11:42:13;;;;;;;0.80;0.80;;;3.80;95.00;;;;;;4984004;28;20023;-84
2024/01/15 11:44:40;;;;;;;1.00;0.80;;;4.00;95.00;;;;;;4985675;28;20478;-78
2024/01/15 11:47:08;;;;;;;1.75;0.80;;;4.10;94.80;;;;;;4990181;28;20035;-80
2024/01/15 11:49:58;;;;;;;2.10;0.95;;;4.10;94.60;;;;;;4990444;28;20119;-81
2024/01/15 11:52:24;;;;;;;2.15;0.90;;;4.20;94.50;;;;;;4990200;28;20038;-79
2024/01/15 11:55:03;;;;;;;2.78;1.00;;;4.20;94.40;;;;;;4989375;28;20040;-81
2024/01/15 11:57:50;;;;;;;0.88;0.82;;;4.30;94.40;;;;;;4987712;28;20042;-78
2024/01/15 12:00:16;;;;;;;1.58;0.90;;;4.30;94.30;;;;;;4988978;28;20113;-81
2024/01/15 12:02:43;;;;;;;1.15;1.00;;;4.30;94.20;;;;;;4991994;28;20098;-78
2024/01/15 12:05:12;;;;;;;0.82;0.80;;;4.30;94.50;;;;;;4997590;28;20029;-82
2024/01/15 12:07:37;;;;;;;4.45;0.90;;;4.40;94.50;;;;;;5000704;28;20021;-82
2024/01/15 12:10:11;;;;;;;0.90;0.77;;;4.40;94.30;;;;;;4993231;28;20026;-80
2024/01/15 12:12:53;;;;;;;3.45;1.23;;;4.50;94.30;;;;;;4999198;28;20073;-79
2024/01/15 12:15:19;;;;;;;3.03;0.93;;;4.40;94.20;;;;;;4989957;28;20023;-81
2024/01/15 12:17:47;;;;;;;1.27;0.98;;;4.40;94.30;;;;;;4991508;28;20117;-80
2024/01/15 12:20:13;;;;;;;0.98;0.90;;;4.40;94.40;;;;;;4992534;28;20445;-78
2024/01/15 12:22:39;;;;;;;1.65;0.98;;;4.50;94.80;;;;;;4988827;28;20068;-79
2024/01/15 12:25:05;;;;;;;2.67;1.00;;;5.00;95.00;;;;;;4998902;28;20457;-80
2024/01/15 12:27:31;;;;;;;2.90;1.00;;;5.20;93.70;;;;;;4993378;28;20032;-78
2024/01/15 12:29:58;;;;;;;1.75;1.10;;;5.20;93.20;;;;;;4991328;28;20459;-78
2024/01/15 12:32:24;;;;;;;2.78;1.00;;;5.10;93.30;;;;;;4988369;28;20027;-81
2024/01/15 12:34:50;;;;;;;2.65;0.90;;;5.00;93.30;;;;;;4996691;28;20045;-79
2024/01/15 12:37:19;;;;;;;1.52;0.90;;;4.80;93.30;;;;;;4988851;28;20034;-80
2024/01/15 12:39:44;;;;;;;2.60;1.00;;;4.70;93.50;;;;;;4991284;28;20120;-78
2024/01/15 12:42:10;;;;;;;0.95;0.82;;;4.60;93.60;;;;;;4990482;28;20186;-80
2024/01/15 12:44:39;;;;;;;1.13;1.02;;;4.50;93.60;;;;;;4999873;28;20022;-79
2024/01/15 12:47:06;;;;;;;0.80;0.80;;;4.30;93.70;;;;;;4988579;28;20036;-79
2024/01/15 12:49:31;;;;;;;1.63;0.80;;;4.20;93.80;;;;;;4996398;28;20466;-79
2024/01/15 12:51:58;;;;;;;1.20;0.70;;;4.10;94.00;;;;;;4987575;28;20051;-79
2024/01/15 12:54:24;;;;;;;0.77;0.77;;;4.10;94.10;;;;;;4992716;28;20146;-80